Newport, Oregon
Current Conditions -  °F | °C
As of 7:15 PM on Saturday 20 Dec 2014 (Local Time) from KONP Reporting Station
Moderate Rain Moderate Rain  
Wind Chill: 55°   Ceiling: 300
Heat Index: 55°   Visibility: 2mi
Dew Point: 55°   Wind: 23mph
Humidity: 100%   Direction: 220°SW
Pressure: 29.76"   Gusts: 31mph
Location:  44.63°N, 124.05°W
Report Text: KONP 210315Z AUTO 22020G27KT 2SM RA OVC003 13/13 A2976 RMK AO2 P0001
Loading
Personal Weather Stations






























Interactive Weather Map New forecast layout! Learn more

10-Day Weather Forecast

Advertisements
Track Severe Weather on mobile